Nolan, Texas
Current Conditions -  °F | °C
As of 9:15 PM on Monday 26 Jan 2015 (Local Time) from KSWW Reporting Station
Clear Clear  
Wind Chill: 54°   Ceiling: Unl
Heat Index: 54°   Visibility: 10mi
Dew Point: 34°   Wind: 10mph
Humidity: 47%   Direction: 220°SW
Pressure: 30.22"   Gusts: NA
Location:  32.27°N, 100.24°W
Report Text: KSWW 270315Z AUTO 22009KT 10SM CLR 12/01 A3022 RMK AO2 T01220013
Loading
Personal Weather Stations






























Interactive Weather Map New forecast layout! Learn more

10-Day Weather Forecast

Advertisements
Track Severe Weather on mobile